createdAt,value
2022-08-24T00:00:42.248Z,3.58
2022-08-24T00:03:12.047Z,4.25
2022-08-24T00:05:40.513Z,4.20
2022-08-24T00:08:08.659Z,4.00
2022-08-24T00:10:36.780Z,4.40
2022-08-24T00:13:05.027Z,4.05
2022-08-24T00:15:34.560Z,3.72
2022-08-24T00:18:02.671Z,4.57
2022-08-24T00:20:30.973Z,5.68
2022-08-24T00:22:59.479Z,4.53
2022-08-24T00:25:27.572Z,4.40
2022-08-24T00:27:55.687Z,4.53
2022-08-24T00:30:24.061Z,4.65
2022-08-24T00:32:54.286Z,4.10
2022-08-24T00:35:23.292Z,4.60
2022-08-24T00:37:53.156Z,5.88
2022-08-24T00:40:24.078Z,5.05
2022-08-24T00:42:52.676Z,5.97
2022-08-24T00:45:22.228Z,6.97
2022-08-24T00:47:59.193Z,4.53
2022-08-24T00:50:36.869Z,5.97
2022-08-24T00:53:11.186Z,7.13
2022-08-24T00:55:43.499Z,5.45
2022-08-24T00:58:18.193Z,5.85
2022-08-24T01:00:52.901Z,6.18
2022-08-24T01:03:22.813Z,6.93
2022-08-24T01:05:51.321Z,6.25
2022-08-24T01:08:23.450Z,5.78
2022-08-24T01:11:02.532Z,5.85
2022-08-24T01:13:32.431Z,6.07
2022-08-24T01:16:04.782Z,5.60
2022-08-24T01:18:51.648Z,7.65
2022-08-24T01:21:22.661Z,5.78
2022-08-24T01:23:55.419Z,5.78
2022-08-24T01:26:36.835Z,6.65
2022-08-24T01:29:09.664Z,7.65
2022-08-24T01:31:37.841Z,5.35
2022-08-24T01:34:06.894Z,6.45
2022-08-24T01:36:39.222Z,6.00
2022-08-24T01:39:14.867Z,5.75
2022-08-24T01:41:43.285Z,6.75
2022-08-24T01:44:11.875Z,7.10
2022-08-24T01:46:40.012Z,5.47
2022-08-24T01:49:08.036Z,8.30
2022-08-24T01:51:36.219Z,10.15
2022-08-24T01:54:05.792Z,10.38
2022-08-24T01:56:35.721Z,10.80
2022-08-24T01:59:07.821Z,8.68
2022-08-24T02:01:39.293Z,8.18
2022-08-24T02:04:09.661Z,8.15
2022-08-24T02:06:38.956Z,12.45
2022-08-24T02:09:07.724Z,8.25
2022-08-24T02:11:38.290Z,10.43
2022-08-24T02:14:06.961Z,8.05
2022-08-24T02:16:35.008Z,10.40
2022-08-24T02:19:02.992Z,8.95
2022-08-24T02:21:31.180Z,9.45
2022-08-24T02:23:59.318Z,8.45
2022-08-24T02:26:28.428Z,10.82
2022-08-24T02:29:03.593Z,11.85
2022-08-24T02:31:32.502Z,12.38
2022-08-24T02:34:00.650Z,14.18
2022-08-24T02:36:28.643Z,12.93
2022-08-24T02:38:56.945Z,12.82
2022-08-24T02:41:25.778Z,12.25
2022-08-24T02:43:54.658Z,12.77
2022-08-24T02:46:25.923Z,11.48
2022-08-24T02:48:57.429Z,12.82
2022-08-24T02:51:44.073Z,10.77
2022-08-24T02:54:17.399Z,10.68
2022-08-24T02:56:45.701Z,10.95
2022-08-24T02:59:14.118Z,13.45
2022-08-24T03:01:43.974Z,11.25
2022-08-24T03:04:13.050Z,10.55
2022-08-24T03:06:41.343Z,10.63
2022-08-24T03:09:09.870Z,11.52
2022-08-24T03:11:38.593Z,10.10
2022-08-24T03:14:07.890Z,10.68
2022-08-24T03:16:38.673Z,11.48
2022-08-24T03:19:08.486Z,10.18
2022-08-24T03:21:36.512Z,8.77
2022-08-24T03:24:05.028Z,9.50
2022-08-24T03:26:33.316Z,9.85
2022-08-24T03:29:01.573Z,7.90
2022-08-24T03:31:29.660Z,8.23
2022-08-24T03:33:57.742Z,9.27
2022-08-24T03:36:27.301Z,9.75
2022-08-24T03:38:55.351Z,9.95
2022-08-24T03:41:23.358Z,9.10
2022-08-24T03:43:51.469Z,10.73
2022-08-24T03:46:22.438Z,8.85
2022-08-24T03:48:53.646Z,8.90
2022-08-24T03:51:28.178Z,10.13
2022-08-24T03:53:59.255Z,8.02
2022-08-24T03:56:28.015Z,9.77
2022-08-24T03:58:56.522Z,7.97
2022-08-24T04:01:24.990Z,7.75
2022-08-24T04:03:54.099Z,7.18
2022-08-24T04:06:23.482Z,9.93
2022-08-24T04:08:52.393Z,5.70
2022-08-24T04:11:24.636Z,7.03
2022-08-24T04:13:53.899Z,8.43
2022-08-24T04:16:22.764Z,7.20
2022-08-24T04:18:51.562Z,6.53
2022-08-24T04:21:21.251Z,7.15
2022-08-24T04:23:49.631Z,5.70
2022-08-24T04:26:43.869Z,6.72
2022-08-24T04:29:10.555Z,7.57
2022-08-24T04:31:38.840Z,6.63
2022-08-24T04:34:07.640Z,5.30
2022-08-24T04:36:36.564Z,5.63
2022-08-24T04:39:05.440Z,6.68
2022-08-24T04:41:33.523Z,5.50
2022-08-24T04:44:02.749Z,5.22
2022-08-24T04:46:32.535Z,6.53
2022-08-24T04:49:00.645Z,4.03
2022-08-24T04:51:32.852Z,4.35
2022-08-24T04:54:05.118Z,5.78
2022-08-24T04:56:33.152Z,5.75
2022-08-24T04:59:01.616Z,8.90
2022-08-24T05:01:33.936Z,6.65
2022-08-24T05:04:02.877Z,7.35
2022-08-24T05:06:32.913Z,6.03
2022-08-24T05:09:02.513Z,6.25
2022-08-24T05:11:31.307Z,6.18
2022-08-24T05:14:00.125Z,6.43
2022-08-24T05:16:39.793Z,6.15
2022-08-24T05:19:15.528Z,7.13
2022-08-24T05:21:44.785Z,6.10
2022-08-24T05:24:12.984Z,4.85
2022-08-24T05:26:42.244Z,4.30
2022-08-24T05:29:11.248Z,4.00
2022-08-24T05:31:45.261Z,3.92
2022-08-24T05:34:15.695Z,4.25
2022-08-24T05:36:44.777Z,4.13
2022-08-24T05:39:15.528Z,4.47
2022-08-24T05:41:45.328Z,4.65
2022-08-24T05:44:16.139Z,4.15
2022-08-24T05:46:45.633Z,3.80
2022-08-24T05:49:15.300Z,4.18
2022-08-24T05:51:43.980Z,3.15
2022-08-24T05:54:15.790Z,3.38
2022-08-24T05:56:44.923Z,3.92
2022-08-24T05:59:15.239Z,4.13
2022-08-24T06:01:47.245Z,3.78
2022-08-24T06:04:17.182Z,3.47
2022-08-24T06:06:48.786Z,5.18
2022-08-24T06:09:18.086Z,4.20
2022-08-24T06:11:47.704Z,4.32
2022-08-24T06:14:22.873Z,4.75
2022-08-24T06:16:55.912Z,4.03
2022-08-24T06:19:28.269Z,3.80
2022-08-24T06:21:57.094Z,3.80
2022-08-24T06:24:46.171Z,4.63
2022-08-24T06:27:25.578Z,3.90
2022-08-24T06:29:56.731Z,3.60
2022-08-24T06:32:26.254Z,3.30
2022-08-24T06:34:59.434Z,3.13
2022-08-24T06:37:29.628Z,3.58
2022-08-24T06:39:59.799Z,3.92
2022-08-24T06:42:30.535Z,3.95
2022-08-24T06:44:59.591Z,3.47
2022-08-24T06:47:27.787Z,3.40
2022-08-24T06:49:59.682Z,3.53
2022-08-24T06:52:28.145Z,3.97
2022-08-24T06:54:56.609Z,2.90
2022-08-24T06:57:25.824Z,2.90
2022-08-24T06:59:55.381Z,2.70
2022-08-24T07:02:24.617Z,2.88
2022-08-24T07:04:53.093Z,3.20
2022-08-24T07:07:23.817Z,2.70
2022-08-24T07:09:51.960Z,3.25
2022-08-24T07:12:20.292Z,2.55
2022-08-24T07:14:49.378Z,2.72
2022-08-24T07:17:19.347Z,3.00
2022-08-24T07:19:47.610Z,2.92
2022-08-24T07:22:16.497Z,2.75
2022-08-24T07:24:46.709Z,2.55
2022-08-24T07:27:15.274Z,4.20
2022-08-24T07:29:52.875Z,3.22
2022-08-24T07:32:29.467Z,2.72
2022-08-24T07:34:57.773Z,2.95
2022-08-24T07:37:40.722Z,2.67
2022-08-24T07:40:11.798Z,2.90
2022-08-24T07:42:42.489Z,2.90
2022-08-24T07:45:13.625Z,2.35
2022-08-24T07:47:52.114Z,2.45
2022-08-24T07:50:23.417Z,2.38
2022-08-24T07:52:51.827Z,2.67
2022-08-24T07:55:22.363Z,2.40
2022-08-24T07:57:51.109Z,2.78
2022-08-24T08:00:20.982Z,2.63
2022-08-24T08:02:50.575Z,2.33
2022-08-24T08:05:22.050Z,2.38
2022-08-24T08:07:52.199Z,2.72
2022-08-24T08:10:23.601Z,2.65
2022-08-24T08:12:52.359Z,2.40
2022-08-24T08:15:21.018Z,2.40
2022-08-24T08:17:54.056Z,2.17
2022-08-24T08:20:24.825Z,2.38
2022-08-24T08:23:19.533Z,2.20
2022-08-24T08:25:52.524Z,2.90
2022-08-24T08:28:36.645Z,2.58
2022-08-24T08:31:09.068Z,2.50
2022-08-24T08:33:37.926Z,2.38
2022-08-24T08:36:10.077Z,2.08
2022-08-24T08:38:40.250Z,2.08
2022-08-24T08:41:39.551Z,2.63
2022-08-24T08:44:17.482Z,1.95
2022-08-24T08:47:01.994Z,1.80
2022-08-24T08:50:07.468Z,1.92
2022-08-24T08:53:02.885Z,1.75
2022-08-24T08:55:37.667Z,1.90
2022-08-24T08:58:23.229Z,1.90
2022-08-24T09:01:04.736Z,1.60
2022-08-24T09:04:21.338Z,2.00
2022-08-24T09:07:18.362Z,2.10
2022-08-24T09:10:04.795Z,2.03
2022-08-24T09:12:49.717Z,1.92
2022-08-24T09:15:57.581Z,1.92
2022-08-24T09:18:41.989Z,1.77
2022-08-24T09:21:47.979Z,1.85
2022-08-24T09:24:31.516Z,2.13
2022-08-24T09:27:13.386Z,2.03
2022-08-24T09:30:03.632Z,2.15
2022-08-24T09:33:14.008Z,1.90
2022-08-24T09:39:04.616Z,1.92
2022-08-24T09:45:23.617Z,2.10
2022-08-24T09:48:27.697Z,3.95
2022-08-24T09:51:26.415Z,2.60
2022-08-24T09:54:30.345Z,2.10
2022-08-24T10:00:13.925Z,1.83
2022-08-24T10:02:57.245Z,1.92
2022-08-24T10:05:37.451Z,2.30
2022-08-24T10:08:19.683Z,2.58
2022-08-24T10:10:58.672Z,2.35
2022-08-24T10:16:42.300Z,2.13
2022-08-24T10:19:50.874Z,2.60
2022-08-24T10:22:47.399Z,1.88
2022-08-24T10:25:32.341Z,2.17
2022-08-24T10:28:12.238Z,2.35
2022-08-24T10:31:06.880Z,2.20
2022-08-24T10:33:53.103Z,1.73
2022-08-24T10:37:03.886Z,2.10
2022-08-24T10:40:09.409Z,1.88
2022-08-24T10:43:33.923Z,1.77
2022-08-24T10:46:59.265Z,1.90
2022-08-24T10:49:59.372Z,2.15
2022-08-24T10:53:12.974Z,2.03
2022-08-24T10:59:12.709Z,1.95
2022-08-24T11:04:50.601Z,2.47
2022-08-24T11:10:42.857Z,2.13
2022-08-24T11:16:35.581Z,2.13
2022-08-24T11:19:08.615Z,3.33
2022-08-24T11:21:44.593Z,3.33
2022-08-24T11:24:27.070Z,2.40
2022-08-24T11:27:00.174Z,2.03
2022-08-24T11:29:32.627Z,2.03
2022-08-24T11:32:13.775Z,1.90
2022-08-24T11:34:48.671Z,1.90
2022-08-24T11:37:20.930Z,2.25
2022-08-24T11:39:52.644Z,2.95
2022-08-24T11:42:33.652Z,1.88
2022-08-24T11:45:11.529Z,3.40
2022-08-24T11:47:50.775Z,2.45
2022-08-24T11:50:27.836Z,1.70
2022-08-24T11:53:12.958Z,1.70
2022-08-24T11:55:57.468Z,3.20
2022-08-24T11:58:42.413Z,1.90
2022-08-24T12:01:23.416Z,2.10
2022-08-24T12:04:06.597Z,2.30
2022-08-24T12:06:46.111Z,1.83
2022-08-24T12:09:41.075Z,2.17
2022-08-24T12:12:21.157Z,2.30
2022-08-24T12:15:00.362Z,1.77
2022-08-24T12:17:35.524Z,2.13
2022-08-24T12:20:12.706Z,2.10
2022-08-24T12:22:43.588Z,2.38
2022-08-24T12:25:27.821Z,2.63
2022-08-24T12:27:57.464Z,2.85
2022-08-24T12:30:27.457Z,2.47
2022-08-24T12:33:00.477Z,3.28
2022-08-24T12:35:33.963Z,2.50
2022-08-24T12:38:09.357Z,2.53
2022-08-24T12:40:41.696Z,2.53
2022-08-24T12:43:14.276Z,2.88
2022-08-24T12:45:42.643Z,2.40
2022-08-24T12:48:18.688Z,2.40
2022-08-24T12:51:05.260Z,2.40
2022-08-24T12:54:01.992Z,2.30
2022-08-24T12:56:49.210Z,3.13
2022-08-24T12:59:24.771Z,2.85
2022-08-24T13:02:02.319Z,2.75
2022-08-24T13:04:39.213Z,2.28
2022-08-24T13:07:14.999Z,2.30
2022-08-24T13:09:46.432Z,2.35
2022-08-24T13:12:53.336Z,2.33
2022-08-24T13:15:56.845Z,2.35
2022-08-24T13:19:06.722Z,2.70
2022-08-24T13:21:44.611Z,2.75
2022-08-24T13:24:50.342Z,2.53
2022-08-24T13:28:03.663Z,2.70
2022-08-24T13:31:28.751Z,2.53
2022-08-24T13:34:22.198Z,3.22
2022-08-24T13:37:06.166Z,4.38
2022-08-24T13:39:56.928Z,2.85
2022-08-24T13:42:41.002Z,2.70
2022-08-24T13:45:32.770Z,3.10
2022-08-24T13:48:15.737Z,3.55
2022-08-24T13:51:05.682Z,2.85
2022-08-24T13:53:48.395Z,2.83
2022-08-24T13:56:33.499Z,2.97
2022-08-24T13:59:10.100Z,2.95
2022-08-24T14:01:48.368Z,3.80
2022-08-24T14:04:34.750Z,3.55
2022-08-24T14:07:14.508Z,2.75
2022-08-24T14:09:58.950Z,3.65
2022-08-24T14:12:45.241Z,2.30
2022-08-24T14:15:24.777Z,4.22
2022-08-24T14:18:06.822Z,2.63
2022-08-24T14:21:03.842Z,2.75
2022-08-24T14:23:53.184Z,4.60
2022-08-24T14:26:55.657Z,2.60
2022-08-24T14:29:33.244Z,2.78
2022-08-24T14:32:45.215Z,2.65
2022-08-24T14:35:34.504Z,4.20
2022-08-24T14:38:23.540Z,2.90
2022-08-24T14:41:04.638Z,4.05
2022-08-24T14:43:48.404Z,2.83
2022-08-24T14:46:22.995Z,3.78
2022-08-24T14:49:04.783Z,2.67
2022-08-24T14:51:57.217Z,2.85
2022-08-24T14:54:39.463Z,2.85
2022-08-24T14:57:44.183Z,2.90
2022-08-24T15:00:20.857Z,4.38
2022-08-24T15:03:12.771Z,3.00
2022-08-24T15:05:51.876Z,3.38
2022-08-24T15:08:42.782Z,4.68
2022-08-24T15:11:13.653Z,3.00
2022-08-24T15:13:48.572Z,2.97
2022-08-24T15:16:23.533Z,2.83
2022-08-24T15:19:04.839Z,3.10
2022-08-24T15:21:45.365Z,5.35
2022-08-24T15:27:08.456Z,3.80
2022-08-24T15:29:47.220Z,3.00
2022-08-24T15:32:17.815Z,2.88
2022-08-24T15:34:49.657Z,3.65
2022-08-24T15:37:27.929Z,3.15
2022-08-24T15:39:56.341Z,3.03
2022-08-24T15:42:24.797Z,4.93
2022-08-24T15:44:53.914Z,3.85
2022-08-24T15:47:30.357Z,4.60
2022-08-24T15:50:01.363Z,3.20
2022-08-24T15:52:48.304Z,3.30
2022-08-24T15:55:40.495Z,2.67
2022-08-24T15:58:28.286Z,4.85
2022-08-24T16:01:19.603Z,4.60
2022-08-24T16:03:52.634Z,4.50
2022-08-24T16:06:26.287Z,3.80
2022-08-24T16:09:03.552Z,3.88
2022-08-24T16:11:38.388Z,2.60
2022-08-24T16:14:13.902Z,4.35
2022-08-24T16:16:46.780Z,4.18
2022-08-24T16:19:28.400Z,5.97
2022-08-24T16:22:01.118Z,2.95
2022-08-24T16:24:36.125Z,3.20
2022-08-24T16:27:10.786Z,3.13
2022-08-24T16:29:50.268Z,3.17
2022-08-24T16:32:32.544Z,3.72
2022-08-24T16:35:22.270Z,3.40
2022-08-24T16:37:50.714Z,2.75
2022-08-24T16:40:19.353Z,3.20
2022-08-24T16:42:47.678Z,3.15
2022-08-24T16:45:19.211Z,3.10
2022-08-24T16:47:48.104Z,4.28
2022-08-24T16:50:20.644Z,3.50
2022-08-24T16:52:50.505Z,3.15
2022-08-24T16:55:18.976Z,4.85
2022-08-24T16:57:47.653Z,5.32
2022-08-24T17:00:19.285Z,3.25
2022-08-24T17:02:48.529Z,3.45
2022-08-24T17:05:21.120Z,3.72
2022-08-24T17:07:50.303Z,4.65
2022-08-24T17:10:22.117Z,4.05
2022-08-24T17:12:50.501Z,3.05
2022-08-24T17:15:18.770Z,4.57
2022-08-24T17:17:58.494Z,5.35
2022-08-24T17:20:29.476Z,4.45
2022-08-24T17:22:59.658Z,4.70
2022-08-24T17:25:29.476Z,3.53
2022-08-24T17:27:59.337Z,4.65
2022-08-24T17:30:31.005Z,3.42
2022-08-24T17:33:00.659Z,7.18
2022-08-24T17:35:31.110Z,4.72
2022-08-24T17:38:00.032Z,3.70
2022-08-24T17:40:30.066Z,4.57
2022-08-24T17:42:58.561Z,4.78
2022-08-24T17:45:27.275Z,7.25
2022-08-24T17:48:13.556Z,4.78
2022-08-24T17:50:43.936Z,3.92
2022-08-24T17:53:12.188Z,6.28
2022-08-24T17:55:40.637Z,3.47
2022-08-24T17:58:08.768Z,3.88
2022-08-24T18:00:37.188Z,3.63
2022-08-24T18:03:05.701Z,5.35
2022-08-24T18:05:35.304Z,7.30
2022-08-24T18:08:06.430Z,3.55
2022-08-24T18:10:34.710Z,3.13
2022-08-24T18:13:04.219Z,4.57
2022-08-24T18:15:36.350Z,5.88
2022-08-24T18:18:08.428Z,9.27
2022-08-24T18:20:40.130Z,8.00
2022-08-24T18:23:12.602Z,4.20
2022-08-24T18:25:45.514Z,4.43
2022-08-24T18:28:14.999Z,3.95
2022-08-24T18:30:44.179Z,3.95
2022-08-24T18:33:13.729Z,4.22
2022-08-24T18:35:42.067Z,6.38
2022-08-24T18:38:11.683Z,4.70
2022-08-24T18:40:41.349Z,5.28
2022-08-24T18:43:23.864Z,3.50
2022-08-24T18:45:53.876Z,4.47
2022-08-24T18:48:22.155Z,4.40
2022-08-24T18:50:51.091Z,4.20
2022-08-24T18:53:37.007Z,8.25
2022-08-24T18:56:10.608Z,9.68
2022-08-24T18:58:41.326Z,5.25
2022-08-24T19:01:12.184Z,4.07
2022-08-24T19:03:40.635Z,4.60
2022-08-24T19:06:09.370Z,4.45
2022-08-24T19:08:39.550Z,5.78
2022-08-24T19:11:08.568Z,6.30
2022-08-24T19:13:38.798Z,6.18
2022-08-24T19:16:07.180Z,4.28
2022-08-24T19:18:35.436Z,4.70
2022-08-24T19:21:03.780Z,7.07
2022-08-24T19:23:35.088Z,5.25
2022-08-24T19:26:05.079Z,6.47
2022-08-24T19:28:33.812Z,7.05
2022-08-24T19:31:08.788Z,4.72
2022-08-24T19:33:40.927Z,8.25
2022-08-24T19:36:10.184Z,4.20
2022-08-24T19:38:38.692Z,7.00
2022-08-24T19:41:12.834Z,6.60
2022-08-24T19:43:56.947Z,8.52
2022-08-24T19:46:25.382Z,5.15
2022-08-24T19:48:53.784Z,4.15
2022-08-24T19:51:22.088Z,5.55
2022-08-24T19:53:51.446Z,5.20
2022-08-24T19:56:21.452Z,4.93
2022-08-24T19:58:54.932Z,5.28
2022-08-24T20:01:24.891Z,4.28
2022-08-24T20:03:53.124Z,4.63
2022-08-24T20:06:23.935Z,5.28
2022-08-24T20:08:53.158Z,5.03
2022-08-24T20:11:25.399Z,6.50
2022-08-24T20:13:54.979Z,6.18
2022-08-24T20:16:26.064Z,6.80
2022-08-24T20:18:54.303Z,5.25
2022-08-24T20:21:27.075Z,6.75
2022-08-24T20:23:58.448Z,7.25
2022-08-24T20:26:29.680Z,6.18
2022-08-24T20:28:59.070Z,5.53
2022-08-24T20:31:29.624Z,5.93
2022-08-24T20:33:58.801Z,5.07
2022-08-24T20:36:29.492Z,5.53
2022-08-24T20:38:59.393Z,4.20
2022-08-24T20:41:29.601Z,4.75
2022-08-24T20:43:58.442Z,5.05
2022-08-24T20:46:28.147Z,4.80
2022-08-24T20:48:57.983Z,4.68
2022-08-24T20:51:27.005Z,4.63
2022-08-24T20:53:55.394Z,8.38
2022-08-24T20:56:31.158Z,4.35
2022-08-24T20:59:02.634Z,6.82
2022-08-24T21:01:31.089Z,6.05
2022-08-24T21:04:04.195Z,4.75
2022-08-24T21:06:34.279Z,6.43
2022-08-24T21:09:03.288Z,4.93
2022-08-24T21:11:32.969Z,4.90
2022-08-24T21:14:06.129Z,6.85
2022-08-24T21:16:36.390Z,7.18
2022-08-24T21:19:06.272Z,3.50
2022-08-24T21:21:34.952Z,4.78
2022-08-24T21:24:04.573Z,5.00
2022-08-24T21:26:33.819Z,3.90
2022-08-24T21:29:05.566Z,4.50
2022-08-24T21:31:34.018Z,5.00
2022-08-24T21:34:19.733Z,6.57
2022-08-24T21:36:49.401Z,4.25
2022-08-24T21:39:22.131Z,4.40
2022-08-24T21:41:50.277Z,3.97
2022-08-24T21:44:19.790Z,4.50
2022-08-24T21:46:51.919Z,3.85
2022-08-24T21:49:21.318Z,6.15
2022-08-24T21:51:50.073Z,4.72
2022-08-24T21:54:20.845Z,4.72
2022-08-24T21:56:49.594Z,3.70
2022-08-24T21:59:19.056Z,3.97
2022-08-24T22:01:47.515Z,4.90
2022-08-24T22:04:15.690Z,4.93
2022-08-24T22:06:43.798Z,4.13
2022-08-24T22:09:12.066Z,4.68
2022-08-24T22:11:40.262Z,4.80
2022-08-24T22:14:08.451Z,3.95
2022-08-24T22:16:38.028Z,7.57
2022-08-24T22:19:06.288Z,3.90
2022-08-24T22:21:36.321Z,4.50
2022-08-24T22:24:05.571Z,5.10
2022-08-24T22:26:34.338Z,6.18
2022-08-24T22:29:02.853Z,4.20
2022-08-24T22:31:33.668Z,6.10
2022-08-24T22:34:06.037Z,4.47
2022-08-24T22:36:34.330Z,6.38
2022-08-24T22:39:02.948Z,4.50
2022-08-24T22:41:32.004Z,4.88
2022-08-24T22:44:20.575Z,4.13
2022-08-24T22:46:50.793Z,4.97
2022-08-24T22:49:21.477Z,4.97
2022-08-24T22:51:50.110Z,4.60
2022-08-24T22:54:18.829Z,4.63
2022-08-24T22:56:50.225Z,6.30
2022-08-24T22:59:21.291Z,5.55
2022-08-24T23:01:51.625Z,4.72
2022-08-24T23:04:25.120Z,5.75
2022-08-24T23:06:54.981Z,6.18
2022-08-24T23:09:23.333Z,6.68
2022-08-24T23:11:52.345Z,5.10
2022-08-24T23:14:21.683Z,5.55
2022-08-24T23:16:50.629Z,6.70
2022-08-24T23:19:39.945Z,4.68
2022-08-24T23:22:09.695Z,4.68
2022-08-24T23:24:38.689Z,4.50
2022-08-24T23:27:07.870Z,4.95
2022-08-24T23:29:36.345Z,4.35
2022-08-24T23:32:05.128Z,6.97
2022-08-24T23:34:35.118Z,5.22
2022-08-24T23:37:03.235Z,4.78
2022-08-24T23:39:31.609Z,11.13
2022-08-24T23:41:59.700Z,4.93
2022-08-24T23:44:30.885Z,4.00
2022-08-24T23:46:59.833Z,5.47
2022-08-24T23:49:30.004Z,4.95
2022-08-24T23:52:00.456Z,5.00
2022-08-24T23:54:29.278Z,5.32
2022-08-24T23:56:57.489Z,5.55
2022-08-24T23:59:29.443Z,4.05
